Time;durP1;ratioP1;P1;durP2;ratioP2;P2;SDS_P1;SDS_P2;PMS_P1;PMS_P2;Temp;Humidity;BMP_temperature;BMP_pressure;BME280_temperature;BME280_humidity;BME280_pressure;Samples;Min_cycle;Max_cycle;Signal;HPM_P1;HPM_P2
2021/11/30 00:00:39;;;;;;;13.98;10.02;;;1.80;99.90;;;;;;5069987;28;20036;-67
2021/11/30 00:03:04;;;;;;;13.43;9.25;;;1.80;99.90;;;;;;5069469;28;20028;-68
2021/11/30 00:05:30;;;;;;;14.43;9.55;;;1.80;99.90;;;;;;5070071;28;20090;-69
2021/11/30 00:07:57;;;;;;;16.67;9.43;;;1.80;99.90;;;;;;5068396;28;20066;-68
2021/11/30 00:13:07;;;;;;;11.25;8.65;;;1.80;99.90;;;;;;5069546;28;20463;-66
2021/11/30 00:15:33;;;;;;;16.20;9.15;;;1.80;99.90;;;;;;5069960;28;20041;-68
2021/11/30 00:17:58;;;;;;;13.82;8.85;;;1.80;99.90;;;;;;5058608;28;20057;-67
2021/11/30 00:20:24;;;;;;;15.13;9.38;;;1.90;99.90;;;;;;5049273;28;20031;-67
2021/11/30 00:22:50;;;;;;;13.80;9.52;;;1.80;99.90;;;;;;5064754;28;20426;-66
2021/11/30 00:25:15;;;;;;;16.50;9.43;;;1.80;99.90;;;;;;5055527;28;20021;-66
2021/11/30 00:27:41;;;;;;;11.80;8.50;;;1.90;99.90;;;;;;5061792;28;20111;-65
2021/11/30 00:30:07;;;;;;;9.60;7.65;;;1.80;99.90;;;;;;5069295;28;20033;-66
2021/11/30 00:32:32;;;;;;;13.68;8.38;;;1.90;99.90;;;;;;5069197;28;20078;-69
2021/11/30 00:34:58;;;;;;;9.93;7.90;;;1.80;99.90;;;;;;5069683;28;20063;-66
2021/11/30 00:37:24;;;;;;;10.30;8.10;;;1.80;99.90;;;;;;5068679;28;20028;-66
2021/11/30 00:39:49;;;;;;;12.98;8.43;;;1.80;99.90;;;;;;5069725;28;20112;-68
2021/11/30 00:42:15;;;;;;;12.63;8.52;;;1.80;99.90;;;;;;5069200;28;20368;-67
2021/11/30 00:44:42;;;;;;;13.48;7.93;;;1.80;99.90;;;;;;5068974;28;20064;-69
2021/11/30 00:47:17;;;;;;;11.45;7.93;;;1.80;99.90;;;;;;5055296;28;20392;-66
2021/11/30 00:49:45;;;;;;;11.13;8.13;;;1.80;99.90;;;;;;5066333;28;20032;-66
2021/11/30 00:52:10;;;;;;;13.32;8.23;;;1.80;99.90;;;;;;5070021;28;20392;-67
2021/11/30 00:54:36;;;;;;;11.15;8.13;;;1.80;99.90;;;;;;5066066;28;20043;-66
2021/11/30 00:57:02;;;;;;;12.80;8.30;;;1.80;99.90;;;;;;5072451;28;20035;-65
2021/11/30 00:59:28;;;;;;;11.20;7.38;;;1.90;99.90;;;;;;5072231;28;20138;-67
2021/11/30 01:01:55;;;;;;;13.38;7.80;;;1.80;99.90;;;;;;5073346;28;20021;-69
2021/11/30 01:04:21;;;;;;;15.63;7.65;;;1.80;99.90;;;;;;5062808;28;20028;-66
2021/11/30 01:06:46;;;;;;;10.00;6.93;;;1.90;99.90;;;;;;5053272;28;20021;-68
2021/11/30 01:09:12;;;;;;;7.93;6.65;;;1.90;99.90;;;;;;5063024;28;20381;-66
2021/11/30 01:11:38;;;;;;;10.25;7.63;;;1.90;99.90;;;;;;5072996;28;20469;-68
2021/11/30 01:14:04;;;;;;;15.43;7.47;;;1.90;99.90;;;;;;5072795;28;20037;-69
2021/11/30 01:16:30;;;;;;;13.50;7.53;;;1.90;99.90;;;;;;5072670;28;20020;-67
2021/11/30 01:18:56;;;;;;;9.45;6.28;;;1.90;99.90;;;;;;5071821;28;20459;-69
2021/11/30 01:21:22;;;;;;;8.25;6.47;;;1.90;99.90;;;;;;5072136;28;20040;-68
2021/11/30 01:23:47;;;;;;;7.90;5.85;;;1.90;99.90;;;;;;5070910;28;20024;-68
2021/11/30 01:26:13;;;;;;;9.43;6.20;;;1.90;99.90;;;;;;5052601;28;20338;-67
2021/11/30 01:28:38;;;;;;;9.57;5.88;;;1.90;99.90;;;;;;5068677;28;20397;-67
2021/11/30 01:31:04;;;;;;;10.20;6.10;;;1.90;99.90;;;;;;5073163;28;20500;-68
2021/11/30 01:33:30;;;;;;;9.10;6.22;;;1.90;99.90;;;;;;5072830;28;20035;-67
2021/11/30 01:35:55;;;;;;;9.23;6.35;;;1.90;99.90;;;;;;5073375;28;20024;-68
2021/11/30 01:38:24;;;;;;;9.02;6.05;;;1.90;99.90;;;;;;5057290;28;20090;-67
2021/11/30 01:40:50;;;;;;;7.57;6.10;;;1.90;99.90;;;;;;5054086;28;20014;-67
2021/11/30 01:43:20;;;;;;;7.70;6.30;;;1.90;99.90;;;;;;5066909;28;20075;-68
2021/11/30 01:45:57;;;;;;;7.72;5.68;;;1.80;99.90;;;;;;5052964;28;20033;-68
2021/11/30 01:50:49;;;;;;;12.32;6.43;;;1.80;99.90;;;;;;5072237;28;20035;-68
2021/11/30 01:53:15;;;;;;;9.88;6.57;;;1.80;99.90;;;;;;5070751;28;20040;-66
2021/11/30 01:55:43;;;;;;;10.27;6.65;;;1.80;99.90;;;;;;5055521;28;20036;-68
2021/11/30 01:58:10;;;;;;;10.38;6.88;;;1.70;99.90;;;;;;5070690;28;20096;-68
2021/11/30 02:00:38;;;;;;;11.25;7.22;;;1.70;99.90;;;;;;5072233;28;20134;-68
2021/11/30 02:03:07;;;;;;;10.95;7.28;;;1.70;99.90;;;;;;5071374;28;20107;-65
2021/11/30 02:05:38;;;;;;;11.40;7.15;;;1.70;99.90;;;;;;5072115;28;20040;-68
2021/11/30 02:08:05;;;;;;;9.40;7.13;;;1.60;99.90;;;;;;5070746;28;20468;-68
2021/11/30 02:10:32;;;;;;;12.30;7.55;;;1.70;99.90;;;;;;5071276;28;20127;-66
2021/11/30 02:12:58;;;;;;;12.13;7.47;;;1.60;99.90;;;;;;5062774;28;20094;-68
2021/11/30 02:15:26;;;;;;;15.23;8.45;;;1.60;99.90;;;;;;5072001;28;20119;-67
2021/11/30 02:17:58;;;;;;;12.40;7.70;;;1.60;99.90;;;;;;5070660;28;20033;-64
2021/11/30 02:20:24;;;;;;;12.43;8.02;;;1.60;99.90;;;;;;5071547;28;20039;-69
2021/11/30 02:22:58;;;;;;;10.38;7.63;;;1.60;99.90;;;;;;5071494;28;20066;-68
2021/11/30 02:25:24;;;;;;;12.68;7.03;;;1.70;99.90;;;;;;5066982;28;20455;-66
2021/11/30 02:27:51;;;;;;;14.15;7.10;;;1.70;99.90;;;;;;5070128;28;20060;-68
2021/11/30 02:30:18;;;;;;;9.00;6.55;;;1.70;99.90;;;;;;5053978;28;20079;-67
2021/11/30 02:32:43;;;;;;;13.40;6.68;;;1.70;99.90;;;;;;5071317;28;20039;-66
2021/11/30 02:35:10;;;;;;;11.82;7.00;;;1.70;99.90;;;;;;5071646;28;20024;-66
2021/11/30 02:37:42;;;;;;;10.55;6.57;;;1.70;99.90;;;;;;5070073;28;20478;-67
2021/11/30 02:40:08;;;;;;;9.87;7.00;;;1.70;99.90;;;;;;5071365;28;20048;-69
2021/11/30 02:42:34;;;;;;;10.38;6.10;;;1.70;99.90;;;;;;5070700;28;20332;-66
2021/11/30 02:45:00;;;;;;;9.18;5.93;;;1.70;99.90;;;;;;5058922;28;20477;-69
2021/11/30 02:47:25;;;;;;;10.00;6.15;;;1.80;99.90;;;;;;5067810;28;20106;-66
2021/11/30 02:49:51;;;;;;;10.15;6.13;;;1.80;99.90;;;;;;5070329;28;20067;-68
2021/11/30 02:52:19;;;;;;;11.90;6.05;;;1.80;99.90;;;;;;5071120;28;20017;-68
2021/11/30 02:54:48;;;;;;;8.23;5.28;;;1.80;99.90;;;;;;5090713;22;20077;-68
2021/11/30 02:57:18;;;;;;;6.35;5.15;;;1.80;99.90;;;;;;5081472;28;20020;-66
2021/11/30 02:59:46;;;;;;;11.18;5.63;;;1.80;99.90;;;;;;5082182;28;20052;-67
2021/11/30 03:02:20;;;;;;;11.50;5.90;;;1.80;99.90;;;;;;5054939;28;20055;-66
2021/11/30 03:04:48;;;;;;;9.10;5.80;;;1.80;99.90;;;;;;5090251;28;20035;-67
2021/11/30 03:07:20;;;;;;;9.80;5.95;;;1.80;99.90;;;;;;5090001;28;20027;-68
2021/11/30 03:09:46;;;;;;;11.43;5.47;;;1.80;99.90;;;;;;5090041;28;20024;-66
2021/11/30 03:12:12;;;;;;;6.15;4.55;;;1.80;99.90;;;;;;5090644;28;20032;-66
2021/11/30 03:14:38;;;;;;;6.00;4.78;;;1.80;99.90;;;;;;5090144;28;20016;-67
2021/11/30 03:17:04;;;;;;;7.93;4.75;;;1.80;99.90;;;;;;5089258;28;20050;-67
2021/11/30 03:19:31;;;;;;;8.60;4.85;;;1.80;99.90;;;;;;5090272;28;20020;-67
2021/11/30 03:21:58;;;;;;;8.10;5.07;;;1.80;99.90;;;;;;5072061;28;20046;-67
2021/11/30 03:24:24;;;;;;;6.13;4.22;;;1.80;99.90;;;;;;5065290;28;20025;-67
2021/11/30 03:26:50;;;;;;;7.00;4.05;;;1.80;99.90;;;;;;5070233;28;20032;-67
2021/11/30 03:29:16;;;;;;;8.23;4.50;;;1.80;99.90;;;;;;5089365;28;20493;-67
2021/11/30 03:34:13;;;;;;;5.65;4.53;;;1.80;99.90;;;;;;5089838;28;20089;-67
2021/11/30 03:36:40;;;;;;;6.45;4.50;;;1.80;99.90;;;;;;5089506;28;20032;-67
2021/11/30 03:39:09;;;;;;;8.43;4.90;;;1.90;99.90;;;;;;5088681;28;20194;-67
2021/11/30 03:41:35;;;;;;;5.43;4.22;;;1.80;99.90;;;;;;5064628;28;20025;-67
2021/11/30 03:44:02;;;;;;;5.95;3.95;;;1.80;99.90;;;;;;5084333;28;20025;-67
2021/11/30 03:46:30;;;;;;;8.50;4.10;;;1.80;99.90;;;;;;5069455;28;20024;-67
2021/11/30 03:48:55;;;;;;;5.97;4.18;;;1.80;99.90;;;;;;5069000;28;20105;-67
2021/11/30 03:51:21;;;;;;;6.78;4.25;;;1.80;99.90;;;;;;5069747;28;20556;-67
2021/11/30 03:53:47;;;;;;;5.90;4.00;;;1.80;99.90;;;;;;5083510;28;20016;-67
2021/11/30 03:56:12;;;;;;;4.53;4.00;;;1.80;99.90;;;;;;5069450;28;20473;-67
2021/11/30 03:58:38;;;;;;;6.38;3.85;;;1.80;99.90;;;;;;5084425;28;20111;-67
2021/11/30 04:01:03;;;;;;;6.43;3.60;;;1.80;99.90;;;;;;5089812;28;20394;-67
2021/11/30 04:03:32;;;;;;;5.28;3.75;;;1.80;99.90;;;;;;5089569;28;20031;-67
2021/11/30 04:05:58;;;;;;;7.85;3.78;;;1.80;99.90;;;;;;5071702;28;20024;-67
2021/11/30 04:08:24;;;;;;;9.13;4.30;;;1.80;99.90;;;;;;5087628;28;20039;-67
2021/11/30 04:10:49;;;;;;;6.90;3.83;;;1.80;99.90;;;;;;5077634;28;20103;-68
2021/11/30 04:13:15;;;;;;;5.38;3.80;;;1.80;99.90;;;;;;5062392;28;20020;-68
2021/11/30 04:15:41;;;;;;;6.22;3.83;;;1.80;99.90;;;;;;5071489;28;20073;-68
2021/11/30 04:18:06;;;;;;;8.55;3.88;;;1.80;99.90;;;;;;5088708;28;20081;-68
2021/11/30 04:20:32;;;;;;;5.90;3.53;;;1.80;99.90;;;;;;5089609;28;20108;-68
2021/11/30 04:22:57;;;;;;;6.80;3.65;;;1.80;99.90;;;;;;5089740;28;20028;-68
2021/11/30 04:25:23;;;;;;;5.43;3.90;;;1.80;99.90;;;;;;5074480;28;20261;-68
2021/11/30 04:27:49;;;;;;;4.88;3.40;;;1.80;99.90;;;;;;5090631;28;20045;-68
2021/11/30 04:30:15;;;;;;;7.22;3.88;;;1.80;99.90;;;;;;5093402;28;20020;-67
2021/11/30 04:32:41;;;;;;;4.28;3.20;;;1.90;99.90;;;;;;5093602;28;20491;-68
2021/11/30 04:35:08;;;;;;;3.55;3.05;;;1.80;99.90;;;;;;5093716;28;20028;-68
2021/11/30 04:37:34;;;;;;;6.85;3.20;;;1.90;99.90;;;;;;5092294;28;20057;-68
2021/11/30 04:39:59;;;;;;;4.22;2.78;;;1.90;99.90;;;;;;5093529;28;20431;-68
2021/11/30 04:42:28;;;;;;;3.15;2.80;;;1.90;99.90;;;;;;5084640;28;20502;-68
2021/11/30 04:45:03;;;;;;;4.95;2.53;;;1.90;99.90;;;;;;5074869;28;20509;-68
2021/11/30 04:47:32;;;;;;;6.60;2.95;;;1.90;99.90;;;;;;5091969;28;20115;-67
2021/11/30 04:50:01;;;;;;;6.72;2.83;;;1.90;99.90;;;;;;5074628;28;20032;-68
2021/11/30 04:52:27;;;;;;;5.57;2.90;;;1.90;99.90;;;;;;5074569;28;20485;-67
2021/11/30 04:54:53;;;;;;;4.35;2.50;;;1.90;99.90;;;;;;5070140;28;20075;-68
2021/11/30 04:57:18;;;;;;;5.45;2.47;;;1.90;99.90;;;;;;5091483;28;20356;-68
2021/11/30 04:59:44;;;;;;;2.55;2.33;;;1.90;99.90;;;;;;5092899;28;20028;-68
2021/11/30 05:02:10;;;;;;;4.13;2.30;;;1.90;99.90;;;;;;5093247;28;20378;-68
2021/11/30 05:04:36;;;;;;;3.80;2.05;;;2.00;99.90;;;;;;5092956;28;20683;-68
2021/11/30 05:07:03;;;;;;;2.70;2.15;;;1.90;99.90;;;;;;5092254;28;20329;-68
2021/11/30 05:09:28;;;;;;;3.22;2.13;;;1.90;99.90;;;;;;5092839;28;20030;-68
2021/11/30 05:11:54;;;;;;;5.30;2.72;;;1.90;99.90;;;;;;5091947;28;20024;-68
2021/11/30 05:14:19;;;;;;;4.90;2.28;;;1.90;99.90;;;;;;5093073;28;20317;-68
2021/11/30 05:16:45;;;;;;;3.10;2.05;;;1.90;99.90;;;;;;5074157;28;20027;-67
2021/11/30 05:19:11;;;;;;;3.35;2.35;;;2.00;99.90;;;;;;5073757;28;20128;-67
2021/11/30 05:21:36;;;;;;;2.92;1.98;;;1.90;99.90;;;;;;5074327;28;20104;-68
2021/11/30 05:24:04;;;;;;;4.40;2.22;;;1.90;99.90;;;;;;5088982;28;20028;-68
2021/11/30 05:26:31;;;;;;;4.25;2.42;;;2.00;99.90;;;;;;5075942;28;20416;-68
2021/11/30 05:28:57;;;;;;;4.25;2.58;;;1.90;99.90;;;;;;5072328;28;20089;-68
2021/11/30 05:31:23;;;;;;;3.60;2.38;;;1.90;99.90;;;;;;5092866;28;20024;-69
2021/11/30 05:33:49;;;;;;;6.88;2.92;;;1.90;99.90;;;;;;5092711;28;20046;-67
2021/11/30 05:36:16;;;;;;;6.75;2.60;;;1.90;99.90;;;;;;5089010;28;20051;-66
2021/11/30 05:38:42;;;;;;;6.07;2.58;;;1.80;99.90;;;;;;5063101;28;20032;-67
2021/11/30 05:41:08;;;;;;;5.13;3.10;;;1.80;99.90;;;;;;5066419;28;20017;-67
2021/11/30 05:43:33;;;;;;;4.05;2.40;;;1.80;99.90;;;;;;5072787;28;20026;-70
2021/11/30 05:45:59;;;;;;;4.43;2.60;;;1.70;99.90;;;;;;5084936;28;20095;-66
2021/11/30 05:48:25;;;;;;;6.55;2.70;;;1.70;99.90;;;;;;5074353;28;20024;-67
2021/11/30 05:50:51;;;;;;;7.57;2.78;;;1.60;99.90;;;;;;5085007;28;20039;-67
2021/11/30 05:53:17;;;;;;;4.68;3.28;;;1.60;99.90;;;;;;5074032;28;20044;-66
2021/11/30 05:55:50;;;;;;;4.35;2.80;;;1.60;99.90;;;;;;5074016;28;20429;-66
2021/11/30 05:58:16;;;;;;;3.60;2.70;;;1.50;99.90;;;;;;5077748;28;20028;-68
2021/11/30 06:00:41;;;;;;;6.53;3.80;;;1.50;99.90;;;;;;5092125;28;20035;-66
2021/11/30 06:03:20;;;;;;;4.25;2.90;;;1.50;99.90;;;;;;5092050;28;20032;-67
2021/11/30 06:05:46;;;;;;;8.50;3.03;;;1.50;99.90;;;;;;5073756;28;20508;-67
2021/11/30 06:08:11;;;;;;;4.75;2.97;;;1.40;99.90;;;;;;5090906;28;20023;-66
2021/11/30 06:10:37;;;;;;;5.47;3.50;;;1.40;99.90;;;;;;5081595;28;20065;-66
2021/11/30 06:13:03;;;;;;;7.32;3.50;;;1.40;99.90;;;;;;5091536;28;20032;-66
2021/11/30 06:15:29;;;;;;;6.82;3.72;;;1.40;99.90;;;;;;5073838;28;20020;-66
2021/11/30 06:17:54;;;;;;;4.22;3.60;;;1.40;99.90;;;;;;5091204;28;20038;-68
2021/11/30 06:20:21;;;;;;;3.75;3.20;;;1.30;99.90;;;;;;5085676;28;20090;-67
2021/11/30 06:22:47;;;;;;;6.85;3.80;;;1.30;99.90;;;;;;5070860;28;20029;-68
2021/11/30 06:25:12;;;;;;;4.32;3.53;;;1.30;99.90;;;;;;5086194;28;20089;-70
2021/11/30 06:27:38;;;;;;;4.25;3.67;;;1.30;99.90;;;;;;5086699;28;20066;-68
2021/11/30 06:30:05;;;;;;;7.68;4.22;;;1.30;99.90;;;;;;5090927;28;20139;-67
2021/11/30 06:32:32;;;;;;;5.95;3.75;;;1.20;99.90;;;;;;5091128;28;20397;-66
2021/11/30 06:34:57;;;;;;;5.90;4.43;;;1.20;99.90;;;;;;5091885;28;20016;-67
2021/11/30 06:37:23;;;;;;;7.03;3.85;;;1.20;99.90;;;;;;5091375;28;20024;-68
2021/11/30 06:39:52;;;;;;;5.13;4.00;;;1.10;99.90;;;;;;5091945;28;20095;-67
2021/11/30 06:42:17;;;;;;;4.88;4.00;;;1.10;99.90;;;;;;5092297;28;20120;-68
2021/11/30 06:44:43;;;;;;;6.22;4.03;;;1.10;99.90;;;;;;5073798;28;20059;-68
2021/11/30 06:47:09;;;;;;;7.00;4.80;;;1.10;99.90;;;;;;5091143;28;20418;-66
2021/11/30 06:49:34;;;;;;;7.60;4.15;;;1.10;99.90;;;;;;5091349;28;20024;-67
2021/11/30 06:52:00;;;;;;;8.60;4.15;;;1.00;99.90;;;;;;5073032;28;20032;-67
2021/11/30 06:54:26;;;;;;;7.88;4.18;;;1.00;99.90;;;;;;5084292;28;20116;-68
2021/11/30 06:56:51;;;;;;;6.20;4.28;;;1.00;99.90;;;;;;5076515;28;20020;-67
2021/11/30 06:59:17;;;;;;;5.30;3.58;;;1.00;99.90;;;;;;5070893;28;20042;-69
2021/11/30 07:01:44;;;;;;;9.13;4.28;;;1.00;99.90;;;;;;5071686;28;20025;-67
2021/11/30 07:04:10;;;;;;;5.25;3.10;;;1.00;99.90;;;;;;5071443;28;20024;-68
2021/11/30 07:10:12;;;;;;;5.72;4.20;;;1.00;99.90;;;;;;5070449;28;20035;-67
2021/11/30 07:12:10;;;;;;;7.00;4.07;;;0.90;99.90;;;;;;5053636;28;20579;-68
2021/11/30 07:14:35;;;;;;;10.63;5.25;;;0.90;99.90;;;;;;5071231;28;20024;-70
2021/11/30 07:17:01;;;;;;;6.28;4.45;;;0.90;99.90;;;;;;5064319;28;20034;-67
2021/11/30 07:19:30;;;;;;;6.80;4.47;;;0.90;99.90;;;;;;5091453;28;20024;-67
2021/11/30 07:21:56;;;;;;;5.90;4.20;;;0.90;99.90;;;;;;5073238;28;20123;-69
2021/11/30 07:24:22;;;;;;;7.88;4.65;;;0.90;99.90;;;;;;5091542;28;20055;-67
2021/11/30 07:26:47;;;;;;;7.50;5.07;;;0.90;99.90;;;;;;5080759;28;20094;-67
2021/11/30 07:29:14;;;;;;;6.88;4.63;;;0.90;99.90;;;;;;5078331;28;20031;-67
2021/11/30 07:31:42;;;;;;;8.45;4.43;;;0.90;99.90;;;;;;5070616;28;20039;-67
2021/11/30 07:34:08;;;;;;;6.53;4.60;;;0.90;99.90;;;;;;5071379;28;20020;-67
2021/11/30 07:36:33;;;;;;;5.85;4.57;;;0.80;99.90;;;;;;5070817;28;20380;-67
2021/11/30 07:38:59;;;;;;;7.45;4.70;;;0.80;99.90;;;;;;5054014;28;20024;-67
2021/11/30 07:41:25;;;;;;;7.57;4.40;;;0.80;99.90;;;;;;5093392;28;20483;-68
2021/11/30 07:43:51;;;;;;;9.32;5.15;;;0.80;99.90;;;;;;5094579;28;20394;-69
2021/11/30 07:46:17;;;;;;;9.77;4.80;;;0.80;99.90;;;;;;5096630;28;20024;-69
2021/11/30 07:48:42;;;;;;;5.88;4.47;;;0.80;99.90;;;;;;5083545;28;20067;-67
2021/11/30 07:51:09;;;;;;;8.98;4.97;;;0.80;99.90;;;;;;5096880;28;20020;-67
2021/11/30 07:53:40;;;;;;;7.20;5.13;;;0.80;99.90;;;;;;5095441;28;20488;-68
2021/11/30 07:56:06;;;;;;;8.90;4.78;;;0.80;99.90;;;;;;5052664;28;20500;-66
2021/11/30 07:58:32;;;;;;;8.57;4.95;;;0.80;99.90;;;;;;5070605;28;20017;-68
2021/11/30 08:00:58;;;;;;;8.43;4.78;;;0.80;99.90;;;;;;5053679;28;20066;-67
2021/11/30 08:03:23;;;;;;;8.02;4.88;;;0.80;99.90;;;;;;5071355;28;20024;-68
2021/11/30 08:05:49;;;;;;;6.35;4.70;;;0.80;99.90;;;;;;5079821;28;20480;-70
2021/11/30 08:08:15;;;;;;;9.40;4.85;;;0.70;99.90;;;;;;5090206;28;20043;-67
2021/11/30 08:10:40;;;;;;;12.73;6.30;;;0.70;99.90;;;;;;5082669;28;20024;-67
2021/11/30 08:13:06;;;;;;;8.18;5.20;;;0.70;99.90;;;;;;5078401;28;20431;-67
2021/11/30 08:15:32;;;;;;;9.05;5.03;;;0.70;99.90;;;;;;5083606;28;20059;-67
2021/11/30 08:17:58;;;;;;;8.80;5.10;;;0.70;99.90;;;;;;5090031;28;20020;-66
2021/11/30 08:20:23;;;;;;;7.97;5.20;;;0.70;99.90;;;;;;5072538;28;20540;-70
2021/11/30 08:22:49;;;;;;;10.20;5.32;;;0.70;99.90;;;;;;5090796;28;20066;-67
2021/11/30 08:25:14;;;;;;;7.25;4.32;;;0.70;99.90;;;;;;5090963;28;20069;-67
2021/11/30 08:27:41;;;;;;;6.22;4.55;;;0.70;99.90;;;;;;5056601;28;20028;-67
2021/11/30 08:30:08;;;;;;;7.78;4.13;;;0.70;99.90;;;;;;5070886;28;20017;-67
2021/11/30 08:32:35;;;;;;;6.35;4.25;;;0.70;99.90;;;;;;5083350;28;20063;-69
2021/11/30 08:35:03;;;;;;;8.65;4.70;;;0.70;99.90;;;;;;5063353;28;20031;-67
2021/11/30 08:37:29;;;;;;;6.40;4.30;;;0.70;99.90;;;;;;5063769;28;20027;-67
2021/11/30 08:39:55;;;;;;;7.55;4.40;;;0.70;99.90;;;;;;5070195;28;20027;-67
2021/11/30 08:42:21;;;;;;;9.43;4.53;;;0.70;99.90;;;;;;5072752;28;20395;-66
2021/11/30 08:44:49;;;;;;;7.68;4.38;;;0.70;99.90;;;;;;5090368;28;20027;-67
2021/11/30 08:47:18;;;;;;;7.40;4.30;;;0.70;99.90;;;;;;5089361;28;20032;-66
2021/11/30 08:49:44;;;;;;;6.00;4.30;;;0.70;99.90;;;;;;5071288;28;20054;-66
2021/11/30 08:52:14;;;;;;;5.68;4.30;;;0.70;99.90;;;;;;5089637;28;20028;-67
2021/11/30 08:54:40;;;;;;;4.93;3.42;;;0.70;99.90;;;;;;5050756;22;20051;-69
2021/11/30 08:57:07;;;;;;;5.40;3.90;;;0.70;99.90;;;;;;4962003;28;20018;-68
2021/11/30 08:59:33;;;;;;;7.80;3.70;;;0.70;99.90;;;;;;4987528;28;20039;-68
2021/11/30 09:01:59;;;;;;;5.55;3.40;;;0.70;99.90;;;;;;4987682;28;20085;-69
2021/11/30 09:04:25;;;;;;;7.35;3.92;;;0.70;99.90;;;;;;4987862;28;20030;-71
2021/11/30 09:06:50;;;;;;;6.80;3.15;;;0.70;99.90;;;;;;4987913;28;20029;-69
2021/11/30 09:09:16;;;;;;;8.95;3.50;;;0.80;99.90;;;;;;4986929;28;20022;-69
2021/11/30 09:11:42;;;;;;;5.95;3.47;;;0.80;99.90;;;;;;4986763;28;20042;-69
2021/11/30 09:14:08;;;;;;;6.97;4.20;;;0.70;99.90;;;;;;4969760;28;20068;-69
2021/11/30 09:16:35;;;;;;;5.50;3.50;;;0.80;99.90;;;;;;4985696;28;20034;-70
2021/11/30 09:19:02;;;;;;;6.65;3.30;;;0.80;99.90;;;;;;4989853;28;20499;-69
2021/11/30 09:21:28;;;;;;;5.28;3.88;;;0.80;99.90;;;;;;4991059;28;20037;-69
2021/11/30 09:23:56;;;;;;;4.50;3.45;;;0.80;99.90;;;;;;4990754;28;20030;-69
2021/11/30 09:26:22;;;;;;;6.53;3.70;;;0.80;99.90;;;;;;4970072;28;20018;-69
2021/11/30 09:28:48;;;;;;;5.00;2.97;;;0.80;99.90;;;;;;4971524;28;20034;-70
2021/11/30 09:31:15;;;;;;;6.20;3.35;;;0.80;99.90;;;;;;4984321;28;20023;-69
2021/11/30 09:33:41;;;;;;;5.13;3.38;;;0.80;99.90;;;;;;4989689;28;20027;-69
2021/11/30 09:36:08;;;;;;;5.90;3.28;;;0.80;99.90;;;;;;4990529;28;20026;-69
2021/11/30 09:38:34;;;;;;;4.60;3.30;;;0.90;99.90;;;;;;4989808;28;20022;-69
2021/11/30 09:41:02;;;;;;;5.38;3.20;;;0.80;99.90;;;;;;4990435;28;20022;-70
2021/11/30 09:43:29;;;;;;;5.40;3.05;;;0.90;99.90;;;;;;4990665;28;20482;-70
2021/11/30 09:46:00;;;;;;;5.15;3.00;;;0.80;99.90;;;;;;4990827;28;20472;-70
2021/11/30 09:48:27;;;;;;;4.32;3.03;;;0.90;99.90;;;;;;4971919;28;20032;-70
2021/11/30 09:50:54;;;;;;;4.03;3.28;;;0.80;99.90;;;;;;4990348;28;20033;-70
2021/11/30 09:53:20;;;;;;;4.10;2.92;;;0.90;99.90;;;;;;4988796;28;20030;-70
2021/11/30 09:55:48;;;;;;;5.85;3.63;;;0.90;99.90;;;;;;4990022;28;20038;-70
2021/11/30 09:58:16;;;;;;;3.38;2.63;;;0.90;99.90;;;;;;4989141;28;20023;-69
2021/11/30 10:00:43;;;;;;;5.43;3.05;;;0.90;99.90;;;;;;4990364;28;20048;-70
2021/11/30 10:03:09;;;;;;;3.85;2.72;;;0.90;99.90;;;;;;4990356;28;20030;-69
2021/11/30 10:05:36;;;;;;;3.58;2.67;;;1.00;99.90;;;;;;4989929;28;20394;-69
2021/11/30 10:08:02;;;;;;;4.65;2.60;;;1.00;99.90;;;;;;4989317;28;20034;-70
2021/11/30 10:10:32;;;;;;;3.97;2.53;;;1.00;99.90;;;;;;4989861;28;20079;-71
2021/11/30 10:13:04;;;;;;;5.30;2.55;;;1.00;99.90;;;;;;4974973;28;20035;-72
2021/11/30 10:15:46;;;;;;;2.85;2.00;;;1.00;99.90;;;;;;4971143;28;20019;-69
2021/11/30 10:18:26;;;;;;;3.97;2.60;;;1.00;99.90;;;;;;4969842;28;20539;-70
2021/11/30 10:21:02;;;;;;;3.15;2.35;;;1.00;99.90;;;;;;4970699;28;20039;-69
2021/11/30 10:23:30;;;;;;;2.35;2.15;;;1.00;99.90;;;;;;4971175;28;20027;-69
2021/11/30 10:26:03;;;;;;;3.60;2.28;;;1.00;99.90;;;;;;4982515;28;20069;-69
2021/11/30 10:28:31;;;;;;;3.13;1.95;;;1.00;99.90;;;;;;4988440;28;20048;-69
2021/11/30 10:30:57;;;;;;;2.42;1.98;;;1.00;99.90;;;;;;4981679;28;20054;-68
2021/11/30 10:33:26;;;;;;;3.42;2.03;;;1.00;99.90;;;;;;4989784;28;20050;-69
2021/11/30 10:35:58;;;;;;;2.20;1.92;;;1.10;99.90;;;;;;4972536;28;20082;-69
2021/11/30 10:38:35;;;;;;;3.33;2.35;;;1.10;99.90;;;;;;4987897;28;20106;-68
2021/11/30 10:41:15;;;;;;;2.60;2.17;;;1.10;99.90;;;;;;4970144;28;20443;-69
2021/11/30 10:43:49;;;;;;;1.80;1.70;;;1.10;99.90;;;;;;4970370;28;20020;-69
2021/11/30 10:46:27;;;;;;;4.28;2.15;;;1.10;99.90;;;;;;4970803;28;20106;-69
2021/11/30 10:48:54;;;;;;;3.65;1.90;;;1.10;99.90;;;;;;4969512;28;20424;-69
2021/11/30 10:51:20;;;;;;;2.05;1.75;;;1.10;99.90;;;;;;4970122;28;20023;-69
2021/11/30 10:53:49;;;;;;;3.75;1.92;;;1.10;99.90;;;;;;4953997;28;20023;-69
2021/11/30 10:56:18;;;;;;;1.77;1.67;;;1.10;99.90;;;;;;4989362;28;20023;-70
2021/11/30 10:58:44;;;;;;;2.00;1.80;;;1.10;99.90;;;;;;4988478;28;20031;-69
2021/11/30 11:01:19;;;;;;;1.52;1.42;;;1.20;99.90;;;;;;4989609;28;20034;-69
2021/11/30 11:04:09;;;;;;;2.75;1.73;;;1.10;99.90;;;;;;4989709;28;20023;-69
2021/11/30 11:06:36;;;;;;;2.70;1.65;;;1.20;99.90;;;;;;4979809;28;20027;-70
2021/11/30 11:09:06;;;;;;;2.28;1.58;;;1.20;99.90;;;;;;4975714;28;20386;-70
2021/11/30 11:11:44;;;;;;;1.98;1.70;;;1.20;99.90;;;;;;4970270;28;20065;-70
2021/11/30 11:14:22;;;;;;;2.33;1.73;;;1.20;99.90;;;;;;4952746;28;20027;-70
2021/11/30 11:17:01;;;;;;;1.40;1.30;;;1.20;99.90;;;;;;4970149;28;20034;-71
2021/11/30 11:19:49;;;;;;;1.98;1.70;;;1.20;99.90;;;;;;4969865;28;20455;-70
2021/11/30 11:22:16;;;;;;;1.52;1.42;;;1.20;99.90;;;;;;4970134;28;20023;-69
2021/11/30 11:24:43;;;;;;;1.40;1.30;;;1.30;99.90;;;;;;4978055;28;20027;-69
2021/11/30 11:27:10;;;;;;;1.85;1.30;;;1.20;99.90;;;;;;4976549;28;20034;-69
2021/11/30 11:29:41;;;;;;;1.30;1.20;;;1.20;99.90;;;;;;4988484;28;20568;-69
2021/11/30 11:32:07;;;;;;;1.48;1.20;;;1.30;99.90;;;;;;4988992;28;20107;-69
2021/11/30 11:34:35;;;;;;;1.65;1.40;;;1.20;99.90;;;;;;4987943;28;20045;-70
2021/11/30 11:37:03;;;;;;;1.63;1.40;;;1.30;99.90;;;;;;4987506;28;20034;-70
2021/11/30 11:39:30;;;;;;;1.77;1.42;;;1.30;99.90;;;;;;4988791;28;20022;-69
2021/11/30 11:41:57;;;;;;;1.60;1.50;;;1.30;99.90;;;;;;4989121;28;20022;-69
2021/11/30 11:44:24;;;;;;;1.42;1.38;;;1.30;99.90;;;;;;4989099;28;20030;-70
2021/11/30 11:46:52;;;;;;;2.35;1.30;;;1.30;99.90;;;;;;4988841;28;20034;-71
2021/11/30 11:49:24;;;;;;;1.30;1.20;;;1.30;99.90;;;;;;4970364;28;20027;-71
2021/11/30 11:51:53;;;;;;;1.33;1.23;;;1.30;99.90;;;;;;4969526;28;20106;-69
2021/11/30 11:54:29;;;;;;;2.50;1.40;;;1.30;99.90;;;;;;4974852;28;20034;-69
2021/11/30 11:56:57;;;;;;;0.90;0.90;;;1.30;99.90;;;;;;4971071;28;20022;-69
2021/11/30 11:59:28;;;;;;;1.30;1.20;;;1.30;99.90;;;;;;4988289;28;20031;-69
2021/11/30 12:02:19;;;;;;;1.92;1.77;;;1.30;99.90;;;;;;4988847;28;20109;-69
2021/11/30 12:04:46;;;;;;;1.38;1.27;;;1.30;99.90;;;;;;5052429;28;20061;-69
2021/11/30 12:07:11;;;;;;;2.72;1.48;;;1.30;99.90;;;;;;4968541;28;20556;-69
2021/11/30 12:09:37;;;;;;;3.40;1.20;;;1.30;99.90;;;;;;4968875;28;20034;-70
2021/11/30 12:12:22;;;;;;;1.50;1.40;;;1.30;99.90;;;;;;4969375;28;20034;-70
2021/11/30 12:14:59;;;;;;;1.65;1.52;;;1.30;99.90;;;;;;4968854;28;20015;-69
2021/11/30 12:17:24;;;;;;;0.90;0.90;;;1.30;99.90;;;;;;4968492;28;20031;-70
2021/11/30 12:19:56;;;;;;;1.63;1.13;;;1.30;99.90;;;;;;4969002;28;20027;-70
2021/11/30 12:22:50;;;;;;;1.20;1.20;;;1.30;99.90;;;;;;4970417;28;20612;-70
2021/11/30 12:25:32;;;;;;;0.82;0.82;;;1.40;99.90;;;;;;4987465;28;20183;-70
2021/11/30 12:28:03;;;;;;;1.23;1.13;;;1.40;99.90;;;;;;4967365;28;20030;-70
2021/11/30 12:30:42;;;;;;;2.22;2.03;;;1.40;99.90;;;;;;4983975;28;20269;-70
2021/11/30 12:33:16;;;;;;;1.95;1.70;;;1.40;99.90;;;;;;4970764;28;20033;-70
2021/11/30 12:35:50;;;;;;;1.70;1.42;;;1.50;99.90;;;;;;4988171;28;20072;-70
2021/11/30 12:38:21;;;;;;;1.35;1.25;;;1.50;99.90;;;;;;4966112;28;20050;-71
2021/11/30 12:40:49;;;;;;;1.70;1.60;;;1.50;99.90;;;;;;4968751;28;20042;-70
2021/11/30 12:43:19;;;;;;;1.35;1.25;;;1.40;99.90;;;;;;4970598;28;20022;-71
2021/11/30 12:45:50;;;;;;;1.30;1.20;;;1.50;99.90;;;;;;4991303;28;20034;-70
2021/11/30 12:48:22;;;;;;;1.00;1.00;;;1.50;99.90;;;;;;4989940;28;20099;-72
2021/11/30 12:50:56;;;;;;;1.20;1.10;;;1.50;99.90;;;;;;4991254;28;20577;-73
2021/11/30 12:53:39;;;;;;;1.20;1.20;;;1.60;99.90;;;;;;4990393;28;20045;-71
2021/11/30 12:56:05;;;;;;;2.38;1.95;;;1.60;99.90;;;;;;4999469;28;20030;-72
2021/11/30 12:58:48;;;;;;;2.00;1.50;;;1.60;99.90;;;;;;5028998;28;20050;-73
2021/11/30 13:01:19;;;;;;;1.80;1.60;;;1.70;99.90;;;;;;4973421;28;20497;-73
2021/11/30 13:03:45;;;;;;;1.70;1.60;;;1.80;99.90;;;;;;4973961;28;20061;-72
2021/11/30 13:06:11;;;;;;;1.80;1.70;;;1.80;99.90;;;;;;5002498;28;20059;-72
2021/11/30 13:09:00;;;;;;;1.50;1.35;;;1.80;99.90;;;;;;4972702;28;20541;-73